sensor_id;sensor_type;location;lat;lon;timestamp;P1;durP1;ratioP1;P2;durP2;ratioP2
79015;SDS011;72726;44.842;37.556;2024-02-23T00:00:33;20.67;;;10.02;;
79015;SDS011;72726;44.842;37.556;2024-02-23T00:01:34;20.10;;;9.13;;
79015;SDS011;72726;44.842;37.556;2024-02-23T00:02:35;23.00;;;10.13;;
79015;SDS011;72726;44.842;37.556;2024-02-23T00:03:36;21.90;;;9.70;;
79015;SDS011;72726;44.842;37.556;2024-02-23T00:04:37;20.63;;;8.73;;
79015;SDS011;72726;44.842;37.556;2024-02-23T00:05:38;18.83;;;8.98;;
79015;SDS011;72726;44.842;37.556;2024-02-23T00:06:39;19.20;;;8.98;;
79015;SDS011;72726;44.842;37.556;2024-02-23T00:07:40;19.40;;;8.85;;
79015;SDS011;72726;44.842;37.556;2024-02-23T00:08:41;22.05;;;9.38;;
79015;SDS011;72726;44.842;37.556;2024-02-23T00:09:42;21.30;;;8.80;;
79015;SDS011;72726;44.842;37.556;2024-02-23T00:10:43;19.70;;;8.25;;
79015;SDS011;72726;44.842;37.556;2024-02-23T00:11:44;20.38;;;9.35;;
79015;SDS011;72726;44.842;37.556;2024-02-23T00:12:45;19.05;;;8.85;;
79015;SDS011;72726;44.842;37.556;2024-02-23T00:13:48;17.90;;;9.15;;
79015;SDS011;72726;44.842;37.556;2024-02-23T00:14:49;17.05;;;8.38;;
79015;SDS011;72726;44.842;37.556;2024-02-23T00:15:51;20.38;;;8.20;;
79015;SDS011;72726;44.842;37.556;2024-02-23T00:16:52;20.98;;;9.35;;
79015;SDS011;72726;44.842;37.556;2024-02-23T00:17:53;19.00;;;8.82;;
79015;SDS011;72726;44.842;37.556;2024-02-23T00:18:56;19.00;;;8.88;;
79015;SDS011;72726;44.842;37.556;2024-02-23T00:19:58;17.45;;;8.75;;
79015;SDS011;72726;44.842;37.556;2024-02-23T00:20:59;19.80;;;8.77;;
79015;SDS011;72726;44.842;37.556;2024-02-23T00:22:00;18.00;;;8.32;;
79015;SDS011;72726;44.842;37.556;2024-02-23T00:23:02;17.63;;;8.90;;
79015;SDS011;72726;44.842;37.556;2024-02-23T00:24:03;17.25;;;8.38;;
79015;SDS011;72726;44.842;37.556;2024-02-23T00:25:05;20.27;;;9.02;;
79015;SDS011;72726;44.842;37.556;2024-02-23T00:26:06;18.27;;;8.68;;
79015;SDS011;72726;44.842;37.556;2024-02-23T00:27:08;16.55;;;7.78;;
79015;SDS011;72726;44.842;37.556;2024-02-23T00:28:09;15.60;;;7.65;;
79015;SDS011;72726;44.842;37.556;2024-02-23T00:29:10;19.08;;;8.40;;
79015;SDS011;72726;44.842;37.556;2024-02-23T00:30:11;16.05;;;8.23;;
79015;SDS011;72726;44.842;37.556;2024-02-23T00:31:12;19.60;;;8.43;;
79015;SDS011;72726;44.842;37.556;2024-02-23T00:32:13;17.70;;;8.43;;
79015;SDS011;72726;44.842;37.556;2024-02-23T00:33:14;18.02;;;9.02;;
79015;SDS011;72726;44.842;37.556;2024-02-23T00:34:16;19.40;;;8.15;;
79015;SDS011;72726;44.842;37.556;2024-02-23T00:35:17;16.77;;;7.75;;
79015;SDS011;72726;44.842;37.556;2024-02-23T00:36:18;14.63;;;7.63;;
79015;SDS011;72726;44.842;37.556;2024-02-23T00:37:19;15.38;;;7.47;;
79015;SDS011;72726;44.842;37.556;2024-02-23T00:38:20;21.45;;;8.32;;
79015;SDS011;72726;44.842;37.556;2024-02-23T00:39:21;22.65;;;8.98;;
79015;SDS011;72726;44.842;37.556;2024-02-23T00:40:23;21.92;;;8.50;;
79015;SDS011;72726;44.842;37.556;2024-02-23T00:41:24;18.30;;;8.20;;
79015;SDS011;72726;44.842;37.556;2024-02-23T00:42:25;14.40;;;7.57;;
79015;SDS011;72726;44.842;37.556;2024-02-23T00:43:26;15.45;;;7.43;;
79015;SDS011;72726;44.842;37.556;2024-02-23T00:44:30;15.25;;;7.55;;
79015;SDS011;72726;44.842;37.556;2024-02-23T00:45:31;18.42;;;8.05;;
79015;SDS011;72726;44.842;37.556;2024-02-23T00:46:32;16.73;;;8.27;;
79015;SDS011;72726;44.842;37.556;2024-02-23T00:47:33;17.63;;;7.93;;
79015;SDS011;72726;44.842;37.556;2024-02-23T00:48:35;15.93;;;7.72;;
79015;SDS011;72726;44.842;37.556;2024-02-23T00:49:36;15.77;;;8.13;;
79015;SDS011;72726;44.842;37.556;2024-02-23T00:50:37;18.50;;;8.60;;
79015;SDS011;72726;44.842;37.556;2024-02-23T00:51:38;18.27;;;8.88;;
79015;SDS011;72726;44.842;37.556;2024-02-23T00:52:39;19.75;;;9.57;;
79015;SDS011;72726;44.842;37.556;2024-02-23T00:53:41;18.35;;;9.25;;
79015;SDS011;72726;44.842;37.556;2024-02-23T00:54:42;21.65;;;10.10;;
79015;SDS011;72726;44.842;37.556;2024-02-23T00:55:43;19.83;;;9.45;;
79015;SDS011;72726;44.842;37.556;2024-02-23T00:56:44;22.17;;;11.25;;
79015;SDS011;72726;44.842;37.556;2024-02-23T00:57:45;21.33;;;10.63;;
79015;SDS011;72726;44.842;37.556;2024-02-23T00:58:47;21.58;;;10.38;;
79015;SDS011;72726;44.842;37.556;2024-02-23T00:59:48;21.15;;;10.73;;
79015;SDS011;72726;44.842;37.556;2024-02-23T01:00:49;22.45;;;11.52;;
79015;SDS011;72726;44.842;37.556;2024-02-23T01:01:50;27.70;;;11.65;;
79015;SDS011;72726;44.842;37.556;2024-02-23T01:02:51;21.65;;;11.45;;
79015;SDS011;72726;44.842;37.556;2024-02-23T01:03:52;23.83;;;11.55;;
79015;SDS011;72726;44.842;37.556;2024-02-23T01:04:53;24.95;;;10.50;;
79015;SDS011;72726;44.842;37.556;2024-02-23T01:05:59;24.25;;;11.27;;
79015;SDS011;72726;44.842;37.556;2024-02-23T01:07:00;22.15;;;11.20;;
79015;SDS011;72726;44.842;37.556;2024-02-23T01:08:01;22.42;;;10.15;;
79015;SDS011;72726;44.842;37.556;2024-02-23T01:09:02;23.60;;;10.43;;
79015;SDS011;72726;44.842;37.556;2024-02-23T01:10:05;22.40;;;10.07;;
79015;SDS011;72726;44.842;37.556;2024-02-23T01:11:06;22.00;;;10.20;;
79015;SDS011;72726;44.842;37.556;2024-02-23T01:12:07;21.25;;;10.18;;
79015;SDS011;72726;44.842;37.556;2024-02-23T01:13:09;19.05;;;8.23;;
79015;SDS011;72726;44.842;37.556;2024-02-23T01:14:10;18.65;;;8.73;;
79015;SDS011;72726;44.842;37.556;2024-02-23T01:15:11;21.98;;;9.52;;
79015;SDS011;72726;44.842;37.556;2024-02-23T01:16:12;18.75;;;9.48;;
79015;SDS011;72726;44.842;37.556;2024-02-23T01:17:14;19.40;;;9.20;;
79015;SDS011;72726;44.842;37.556;2024-02-23T01:18:16;18.33;;;9.13;;
79015;SDS011;72726;44.842;37.556;2024-02-23T01:19:17;20.45;;;9.55;;
79015;SDS011;72726;44.842;37.556;2024-02-23T01:20:19;19.45;;;8.85;;
79015;SDS011;72726;44.842;37.556;2024-02-23T01:21:20;18.80;;;8.90;;
79015;SDS011;72726;44.842;37.556;2024-02-23T01:22:21;20.67;;;9.70;;
79015;SDS011;72726;44.842;37.556;2024-02-23T01:23:22;17.88;;;9.30;;
79015;SDS011;72726;44.842;37.556;2024-02-23T01:24:23;22.02;;;9.70;;
79015;SDS011;72726;44.842;37.556;2024-02-23T01:25:26;20.13;;;9.18;;
79015;SDS011;72726;44.842;37.556;2024-02-23T01:26:27;19.08;;;8.70;;
79015;SDS011;72726;44.842;37.556;2024-02-23T01:27:28;21.75;;;9.63;;
79015;SDS011;72726;44.842;37.556;2024-02-23T01:28:29;18.58;;;8.48;;
79015;SDS011;72726;44.842;37.556;2024-02-23T01:29:31;21.48;;;7.72;;
79015;SDS011;72726;44.842;37.556;2024-02-23T01:30:33;23.35;;;8.55;;
79015;SDS011;72726;44.842;37.556;2024-02-23T01:31:34;24.48;;;9.18;;
79015;SDS011;72726;44.842;37.556;2024-02-23T01:32:35;20.10;;;7.90;;
79015;SDS011;72726;44.842;37.556;2024-02-23T01:33:39;18.92;;;8.25;;
79015;SDS011;72726;44.842;37.556;2024-02-23T01:34:40;21.88;;;8.23;;
79015;SDS011;72726;44.842;37.556;2024-02-23T01:35:41;23.33;;;8.05;;
79015;SDS011;72726;44.842;37.556;2024-02-23T01:36:42;20.50;;;8.20;;
79015;SDS011;72726;44.842;37.556;2024-02-23T01:37:43;20.02;;;8.40;;
79015;SDS011;72726;44.842;37.556;2024-02-23T01:38:44;17.08;;;7.50;;
79015;SDS011;72726;44.842;37.556;2024-02-23T01:39:45;19.40;;;7.22;;
79015;SDS011;72726;44.842;37.556;2024-02-23T01:40:47;20.08;;;7.63;;
79015;SDS011;72726;44.842;37.556;2024-02-23T01:41:48;15.27;;;7.20;;
79015;SDS011;72726;44.842;37.556;2024-02-23T01:42:59;21.20;;;7.88;;
79015;SDS011;72726;44.842;37.556;2024-02-23T01:44:04;17.10;;;6.85;;
79015;SDS011;72726;44.842;37.556;2024-02-23T01:45:06;15.10;;;6.88;;
79015;SDS011;72726;44.842;37.556;2024-02-23T01:46:08;17.85;;;6.93;;
79015;SDS011;72726;44.842;37.556;2024-02-23T01:47:13;13.80;;;6.43;;
79015;SDS011;72726;44.842;37.556;2024-02-23T01:48:16;12.00;;;5.95;;
79015;SDS011;72726;44.842;37.556;2024-02-23T01:49:17;14.43;;;5.93;;
79015;SDS011;72726;44.842;37.556;2024-02-23T01:50:18;14.88;;;5.88;;
79015;SDS011;72726;44.842;37.556;2024-02-23T01:51:19;12.88;;;6.10;;
79015;SDS011;72726;44.842;37.556;2024-02-23T01:52:21;15.10;;;6.53;;
79015;SDS011;72726;44.842;37.556;2024-02-23T01:53:22;14.88;;;6.25;;
79015;SDS011;72726;44.842;37.556;2024-02-23T01:54:26;14.60;;;6.20;;
79015;SDS011;72726;44.842;37.556;2024-02-23T01:55:29;13.00;;;6.38;;
79015;SDS011;72726;44.842;37.556;2024-02-23T01:56:32;13.85;;;5.90;;
79015;SDS011;72726;44.842;37.556;2024-02-23T01:57:33;14.68;;;6.47;;
79015;SDS011;72726;44.842;37.556;2024-02-23T01:58:35;12.15;;;6.35;;
79015;SDS011;72726;44.842;37.556;2024-02-23T01:59:38;12.27;;;5.55;;
79015;SDS011;72726;44.842;37.556;2024-02-23T02:00:40;11.32;;;5.50;;
79015;SDS011;72726;44.842;37.556;2024-02-23T02:01:42;11.48;;;5.35;;
79015;SDS011;72726;44.842;37.556;2024-02-23T02:02:44;11.88;;;5.20;;
79015;SDS011;72726;44.842;37.556;2024-02-23T02:03:46;11.43;;;5.53;;
79015;SDS011;72726;44.842;37.556;2024-02-23T02:04:47;14.00;;;5.38;;
79015;SDS011;72726;44.842;37.556;2024-02-23T02:05:48;11.27;;;5.43;;
79015;SDS011;72726;44.842;37.556;2024-02-23T02:06:50;12.18;;;5.45;;
79015;SDS011;72726;44.842;37.556;2024-02-23T02:07:52;10.65;;;5.03;;
79015;SDS011;72726;44.842;37.556;2024-02-23T02:08:59;9.90;;;5.15;;
79015;SDS011;72726;44.842;37.556;2024-02-23T02:10:00;10.57;;;5.32;;
79015;SDS011;72726;44.842;37.556;2024-02-23T02:11:01;10.85;;;5.40;;
79015;SDS011;72726;44.842;37.556;2024-02-23T02:12:02;11.52;;;5.13;;
79015;SDS011;72726;44.842;37.556;2024-02-23T02:13:05;10.07;;;5.25;;
79015;SDS011;72726;44.842;37.556;2024-02-23T02:14:06;11.65;;;5.22;;
79015;SDS011;72726;44.842;37.556;2024-02-23T02:15:08;10.18;;;5.30;;
79015;SDS011;72726;44.842;37.556;2024-02-23T02:16:09;11.15;;;5.13;;
79015;SDS011;72726;44.842;37.556;2024-02-23T02:17:11;12.45;;;5.10;;
79015;SDS011;72726;44.842;37.556;2024-02-23T02:18:12;12.90;;;5.63;;
79015;SDS011;72726;44.842;37.556;2024-02-23T02:19:14;13.48;;;5.13;;
79015;SDS011;72726;44.842;37.556;2024-02-23T02:20:15;14.73;;;5.57;;
79015;SDS011;72726;44.842;37.556;2024-02-23T02:21:19;11.13;;;5.40;;
79015;SDS011;72726;44.842;37.556;2024-02-23T02:22:24;11.32;;;5.78;;
79015;SDS011;72726;44.842;37.556;2024-02-23T02:23:25;12.52;;;6.00;;
79015;SDS011;72726;44.842;37.556;2024-02-23T02:24:29;12.65;;;5.93;;
79015;SDS011;72726;44.842;37.556;2024-02-23T02:25:30;13.00;;;5.40;;
79015;SDS011;72726;44.842;37.556;2024-02-23T02:26:31;10.57;;;5.28;;
79015;SDS011;72726;44.842;37.556;2024-02-23T02:27:32;11.65;;;5.70;;
79015;SDS011;72726;44.842;37.556;2024-02-23T02:28:33;10.60;;;5.05;;
79015;SDS011;72726;44.842;37.556;2024-02-23T02:29:35;10.77;;;5.57;;
79015;SDS011;72726;44.842;37.556;2024-02-23T02:30:37;15.45;;;5.53;;
79015;SDS011;72726;44.842;37.556;2024-02-23T02:31:38;10.73;;;4.88;;
79015;SDS011;72726;44.842;37.556;2024-02-23T02:32:39;10.60;;;5.20;;
79015;SDS011;72726;44.842;37.556;2024-02-23T02:33:41;12.73;;;5.55;;
79015;SDS011;72726;44.842;37.556;2024-02-23T02:34:42;10.32;;;4.88;;
79015;SDS011;72726;44.842;37.556;2024-02-23T02:35:43;10.43;;;5.00;;
79015;SDS011;72726;44.842;37.556;2024-02-23T02:36:44;11.77;;;5.10;;
79015;SDS011;72726;44.842;37.556;2024-02-23T02:37:45;9.88;;;5.00;;
79015;SDS011;72726;44.842;37.556;2024-02-23T02:38:47;10.02;;;5.10;;
79015;SDS011;72726;44.842;37.556;2024-02-23T02:39:48;10.18;;;5.07;;
79015;SDS011;72726;44.842;37.556;2024-02-23T02:40:49;11.60;;;6.30;;
79015;SDS011;72726;44.842;37.556;2024-02-23T02:41:50;12.02;;;5.63;;
79015;SDS011;72726;44.842;37.556;2024-02-23T02:42:51;11.43;;;5.53;;
79015;SDS011;72726;44.842;37.556;2024-02-23T02:43:52;11.23;;;5.72;;
79015;SDS011;72726;44.842;37.556;2024-02-23T02:44:54;13.82;;;5.80;;
79015;SDS011;72726;44.842;37.556;2024-02-23T02:45:59;11.43;;;5.50;;
79015;SDS011;72726;44.842;37.556;2024-02-23T02:47:00;13.18;;;6.35;;
79015;SDS011;72726;44.842;37.556;2024-02-23T02:48:01;13.45;;;6.00;;
79015;SDS011;72726;44.842;37.556;2024-02-23T02:49:03;12.77;;;5.45;;
79015;SDS011;72726;44.842;37.556;2024-02-23T02:50:04;10.55;;;5.40;;
79015;SDS011;72726;44.842;37.556;2024-02-23T02:51:07;12.02;;;5.50;;
79015;SDS011;72726;44.842;37.556;2024-02-23T02:52:08;13.18;;;5.75;;
79015;SDS011;72726;44.842;37.556;2024-02-23T02:53:10;12.20;;;5.68;;
79015;SDS011;72726;44.842;37.556;2024-02-23T02:54:11;10.98;;;5.50;;
79015;SDS011;72726;44.842;37.556;2024-02-23T02:55:12;11.15;;;5.65;;
79015;SDS011;72726;44.842;37.556;2024-02-23T02:56:13;11.10;;;5.63;;
79015;SDS011;72726;44.842;37.556;2024-02-23T02:57:14;11.73;;;5.47;;
79015;SDS011;72726;44.842;37.556;2024-02-23T02:58:15;12.13;;;5.90;;
79015;SDS011;72726;44.842;37.556;2024-02-23T02:59:17;11.82;;;5.90;;
79015;SDS011;72726;44.842;37.556;2024-02-23T03:00:19;11.85;;;5.70;;
79015;SDS011;72726;44.842;37.556;2024-02-23T03:01:20;13.02;;;6.50;;
79015;SDS011;72726;44.842;37.556;2024-02-23T03:02:21;13.10;;;6.43;;
79015;SDS011;72726;44.842;37.556;2024-02-23T03:03:22;15.25;;;8.30;;
79015;SDS011;72726;44.842;37.556;2024-02-23T03:04:23;23.50;;;12.10;;
79015;SDS011;72726;44.842;37.556;2024-02-23T03:05:24;26.25;;;13.13;;
79015;SDS011;72726;44.842;37.556;2024-02-23T03:06:25;24.50;;;12.45;;
79015;SDS011;72726;44.842;37.556;2024-02-23T03:07:26;30.10;;;15.73;;
79015;SDS011;72726;44.842;37.556;2024-02-23T03:08:27;25.58;;;13.18;;
79015;SDS011;72726;44.842;37.556;2024-02-23T03:09:28;21.20;;;11.43;;
79015;SDS011;72726;44.842;37.556;2024-02-23T03:10:29;21.85;;;10.57;;
79015;SDS011;72726;44.842;37.556;2024-02-23T03:11:30;16.85;;;8.55;;
79015;SDS011;72726;44.842;37.556;2024-02-23T03:12:31;16.38;;;7.50;;
79015;SDS011;72726;44.842;37.556;2024-02-23T03:13:32;17.95;;;7.50;;
79015;SDS011;72726;44.842;37.556;2024-02-23T03:14:34;13.15;;;7.22;;
79015;SDS011;72726;44.842;37.556;2024-02-23T03:15:35;13.98;;;6.70;;
79015;SDS011;72726;44.842;37.556;2024-02-23T03:16:36;13.38;;;6.35;;
79015;SDS011;72726;44.842;37.556;2024-02-23T03:17:38;13.93;;;6.55;;
79015;SDS011;72726;44.842;37.556;2024-02-23T03:18:39;13.85;;;6.07;;
79015;SDS011;72726;44.842;37.556;2024-02-23T03:19:40;12.85;;;6.28;;
79015;SDS011;72726;44.842;37.556;2024-02-23T03:20:41;36.85;;;17.80;;
79015;SDS011;72726;44.842;37.556;2024-02-23T03:21:43;38.35;;;18.52;;
79015;SDS011;72726;44.842;37.556;2024-02-23T03:22:44;29.15;;;14.43;;
79015;SDS011;72726;44.842;37.556;2024-02-23T03:23:45;22.85;;;11.32;;
79015;SDS011;72726;44.842;37.556;2024-02-23T03:24:46;18.77;;;9.20;;
79015;SDS011;72726;44.842;37.556;2024-02-23T03:25:47;16.45;;;7.95;;
79015;SDS011;72726;44.842;37.556;2024-02-23T03:26:48;12.63;;;6.68;;
79015;SDS011;72726;44.842;37.556;2024-02-23T03:27:49;13.65;;;6.40;;
79015;SDS011;72726;44.842;37.556;2024-02-23T03:28:50;11.55;;;6.40;;
79015;SDS011;72726;44.842;37.556;2024-02-23T03:29:51;13.23;;;5.90;;
79015;SDS011;72726;44.842;37.556;2024-02-23T03:30:52;12.85;;;6.25;;
79015;SDS011;72726;44.842;37.556;2024-02-23T03:31:53;12.55;;;6.43;;
79015;SDS011;72726;44.842;37.556;2024-02-23T03:32:54;12.82;;;6.63;;
79015;SDS011;72726;44.842;37.556;2024-02-23T03:33:55;10.60;;;6.20;;
79015;SDS011;72726;44.842;37.556;2024-02-23T03:34:57;13.65;;;6.85;;
79015;SDS011;72726;44.842;37.556;2024-02-23T03:35:58;13.32;;;6.43;;
79015;SDS011;72726;44.842;37.556;2024-02-23T03:36:59;13.48;;;6.55;;
79015;SDS011;72726;44.842;37.556;2024-02-23T03:38:01;13.75;;;6.78;;
79015;SDS011;72726;44.842;37.556;2024-02-23T03:39:02;13.90;;;7.15;;
79015;SDS011;72726;44.842;37.556;2024-02-23T03:40:07;13.05;;;7.07;;
79015;SDS011;72726;44.842;37.556;2024-02-23T03:41:08;15.00;;;6.85;;
79015;SDS011;72726;44.842;37.556;2024-02-23T03:42:09;11.45;;;6.20;;
79015;SDS011;72726;44.842;37.556;2024-02-23T03:43:10;13.13;;;6.55;;
79015;SDS011;72726;44.842;37.556;2024-02-23T03:44:12;12.05;;;6.60;;
79015;SDS011;72726;44.842;37.556;2024-02-23T03:45:13;13.07;;;6.28;;
79015;SDS011;72726;44.842;37.556;2024-02-23T03:46:14;11.93;;;6.32;;
79015;SDS011;72726;44.842;37.556;2024-02-23T03:47:15;12.43;;;5.95;;
79015;SDS011;72726;44.842;37.556;2024-02-23T03:48:16;16.42;;;7.43;;
79015;SDS011;72726;44.842;37.556;2024-02-23T03:49:17;12.40;;;6.38;;
79015;SDS011;72726;44.842;37.556;2024-02-23T03:50:18;12.15;;;6.40;;
79015;SDS011;72726;44.842;37.556;2024-02-23T03:51:19;13.02;;;6.38;;
79015;SDS011;72726;44.842;37.556;2024-02-23T03:52:20;18.20;;;5.70;;
79015;SDS011;72726;44.842;37.556;2024-02-23T03:53:21;11.10;;;5.55;;
79015;SDS011;72726;44.842;37.556;2024-02-23T03:54:22;11.95;;;6.22;;
79015;SDS011;72726;44.842;37.556;2024-02-23T03:55:23;10.82;;;6.15;;
79015;SDS011;72726;44.842;37.556;2024-02-23T03:56:25;15.27;;;6.03;;
79015;SDS011;72726;44.842;37.556;2024-02-23T03:57:26;10.93;;;5.63;;
79015;SDS011;72726;44.842;37.556;2024-02-23T03:58:27;13.27;;;6.18;;
79015;SDS011;72726;44.842;37.556;2024-02-23T03:59:28;12.25;;;5.93;;
79015;SDS011;72726;44.842;37.556;2024-02-23T04:00:29;15.25;;;6.65;;
79015;SDS011;72726;44.842;37.556;2024-02-23T04:01:30;12.32;;;6.00;;
79015;SDS011;72726;44.842;37.556;2024-02-23T04:02:32;13.82;;;6.20;;
79015;SDS011;72726;44.842;37.556;2024-02-23T04:03:33;12.82;;;6.45;;
79015;SDS011;72726;44.842;37.556;2024-02-23T04:04:34;16.42;;;6.30;;
79015;SDS011;72726;44.842;37.556;2024-02-23T04:05:35;13.00;;;6.63;;
79015;SDS011;72726;44.842;37.556;2024-02-23T04:06:36;13.65;;;6.45;;
79015;SDS011;72726;44.842;37.556;2024-02-23T04:07:37;14.07;;;6.60;;
79015;SDS011;72726;44.842;37.556;2024-02-23T04:08:39;15.75;;;6.82;;
79015;SDS011;72726;44.842;37.556;2024-02-23T04:09:41;14.20;;;6.40;;
79015;SDS011;72726;44.842;37.556;2024-02-23T04:10:42;14.00;;;6.43;;
79015;SDS011;72726;44.842;37.556;2024-02-23T04:11:43;12.43;;;6.18;;
79015;SDS011;72726;44.842;37.556;2024-02-23T04:12:45;14.52;;;6.00;;
79015;SDS011;72726;44.842;37.556;2024-02-23T04:13:47;15.43;;;6.95;;
79015;SDS011;72726;44.842;37.556;2024-02-23T04:14:48;15.13;;;5.85;;
79015;SDS011;72726;44.842;37.556;2024-02-23T04:15:49;12.15;;;6.15;;
79015;SDS011;72726;44.842;37.556;2024-02-23T04:16:50;18.23;;;6.38;;
79015;SDS011;72726;44.842;37.556;2024-02-23T04:17:51;13.35;;;6.07;;
79015;SDS011;72726;44.842;37.556;2024-02-23T04:18:53;13.93;;;6.20;;
79015;SDS011;72726;44.842;37.556;2024-02-23T04:19:54;15.02;;;6.50;;
79015;SDS011;72726;44.842;37.556;2024-02-23T04:20:55;12.90;;;6.05;;
79015;SDS011;72726;44.842;37.556;2024-02-23T04:21:56;11.82;;;5.85;;
79015;SDS011;72726;44.842;37.556;2024-02-23T04:22:57;13.73;;;6.05;;
79015;SDS011;72726;44.842;37.556;2024-02-23T04:23:58;11.55;;;6.07;;
79015;SDS011;72726;44.842;37.556;2024-02-23T04:24:59;11.65;;;6.13;;
79015;SDS011;72726;44.842;37.556;2024-02-23T04:26:01;12.20;;;6.53;;
79015;SDS011;72726;44.842;37.556;2024-02-23T04:27:02;12.15;;;6.55;;
79015;SDS011;72726;44.842;37.556;2024-02-23T04:28:03;14.30;;;6.13;;
79015;SDS011;72726;44.842;37.556;2024-02-23T04:29:04;11.55;;;6.00;;
79015;SDS011;72726;44.842;37.556;2024-02-23T04:30:05;14.82;;;6.22;;
79015;SDS011;72726;44.842;37.556;2024-02-23T04:31:10;12.68;;;6.13;;
79015;SDS011;72726;44.842;37.556;2024-02-23T04:32:11;12.55;;;5.82;;
79015;SDS011;72726;44.842;37.556;2024-02-23T04:33:12;13.07;;;6.10;;
79015;SDS011;72726;44.842;37.556;2024-02-23T04:34:14;12.75;;;5.63;;
79015;SDS011;72726;44.842;37.556;2024-02-23T04:35:17;13.27;;;6.75;;
79015;SDS011;72726;44.842;37.556;2024-02-23T04:36:21;12.75;;;5.80;;
79015;SDS011;72726;44.842;37.556;2024-02-23T04:37:22;11.63;;;6.15;;
79015;SDS011;72726;44.842;37.556;2024-02-23T04:38:23;14.50;;;6.97;;
79015;SDS011;72726;44.842;37.556;2024-02-23T04:39:24;14.00;;;7.18;;
79015;SDS011;72726;44.842;37.556;2024-02-23T04:40:25;12.63;;;6.13;;
79015;SDS011;72726;44.842;37.556;2024-02-23T04:41:26;12.63;;;6.32;;
79015;SDS011;72726;44.842;37.556;2024-02-23T04:42:27;11.20;;;6.15;;
79015;SDS011;72726;44.842;37.556;2024-02-23T04:43:28;16.73;;;7.90;;
79015;SDS011;72726;44.842;37.556;2024-02-23T04:44:30;13.95;;;7.07;;
79015;SDS011;72726;44.842;37.556;2024-02-23T04:45:31;14.75;;;7.47;;
79015;SDS011;72726;44.842;37.556;2024-02-23T04:46:32;14.13;;;7.13;;
79015;SDS011;72726;44.842;37.556;2024-02-23T04:47:34;12.60;;;6.57;;
79015;SDS011;72726;44.842;37.556;2024-02-23T04:48:35;12.18;;;6.43;;
79015;SDS011;72726;44.842;37.556;2024-02-23T04:49:37;13.80;;;6.00;;
79015;SDS011;72726;44.842;37.556;2024-02-23T04:50:38;12.38;;;6.22;;
79015;SDS011;72726;44.842;37.556;2024-02-23T04:51:39;12.48;;;5.80;;
79015;SDS011;72726;44.842;37.556;2024-02-23T04:52:40;10.52;;;5.78;;
79015;SDS011;72726;44.842;37.556;2024-02-23T04:53:41;12.57;;;5.93;;
79015;SDS011;72726;44.842;37.556;2024-02-23T04:54:42;9.38;;;4.90;;
79015;SDS011;72726;44.842;37.556;2024-02-23T04:55:43;10.30;;;5.03;;
79015;SDS011;72726;44.842;37.556;2024-02-23T04:56:44;10.02;;;4.97;;
79015;SDS011;72726;44.842;37.556;2024-02-23T04:57:45;11.00;;;5.45;;
79015;SDS011;72726;44.842;37.556;2024-02-23T04:58:47;10.60;;;4.72;;
79015;SDS011;72726;44.842;37.556;2024-02-23T04:59:48;9.00;;;4.80;;
79015;SDS011;72726;44.842;37.556;2024-02-23T05:00:49;10.40;;;4.63;;
79015;SDS011;72726;44.842;37.556;2024-02-23T05:01:50;10.10;;;4.75;;
79015;SDS011;72726;44.842;37.556;2024-02-23T05:02:51;8.23;;;4.28;;
79015;SDS011;72726;44.842;37.556;2024-02-23T05:03:52;9.20;;;4.78;;
79015;SDS011;72726;44.842;37.556;2024-02-23T05:04:53;8.95;;;4.43;;
79015;SDS011;72726;44.842;37.556;2024-02-23T05:05:54;8.93;;;4.65;;
79015;SDS011;72726;44.842;37.556;2024-02-23T05:06:55;9.38;;;4.10;;
79015;SDS011;72726;44.842;37.556;2024-02-23T05:07:56;8.93;;;4.10;;
79015;SDS011;72726;44.842;37.556;2024-02-23T05:08:57;9.35;;;4.60;;
79015;SDS011;72726;44.842;37.556;2024-02-23T05:09:59;10.75;;;4.45;;
79015;SDS011;72726;44.842;37.556;2024-02-23T05:11:00;8.73;;;4.00;;
79015;SDS011;72726;44.842;37.556;2024-02-23T05:12:01;8.73;;;4.00;;
79015;SDS011;72726;44.842;37.556;2024-02-23T05:13:02;8.55;;;4.20;;
79015;SDS011;72726;44.842;37.556;2024-02-23T05:14:04;10.15;;;4.53;;
79015;SDS011;72726;44.842;37.556;2024-02-23T05:15:05;10.38;;;4.88;;
79015;SDS011;72726;44.842;37.556;2024-02-23T05:16:07;10.00;;;4.53;;
79015;SDS011;72726;44.842;37.556;2024-02-23T05:17:08;11.07;;;5.25;;
79015;SDS011;72726;44.842;37.556;2024-02-23T05:18:09;10.95;;;5.13;;
79015;SDS011;72726;44.842;37.556;2024-02-23T05:19:10;11.38;;;5.32;;
79015;SDS011;72726;44.842;37.556;2024-02-23T05:20:11;10.05;;;5.22;;
79015;SDS011;72726;44.842;37.556;2024-02-23T05:21:14;11.23;;;5.20;;
79015;SDS011;72726;44.842;37.556;2024-02-23T05:22:16;10.05;;;4.47;;
79015;SDS011;72726;44.842;37.556;2024-02-23T05:23:17;11.30;;;5.32;;
79015;SDS011;72726;44.842;37.556;2024-02-23T05:24:19;12.40;;;5.47;;
79015;SDS011;72726;44.842;37.556;2024-02-23T05:25:20;11.70;;;5.75;;
79015;SDS011;72726;44.842;37.556;2024-02-23T05:26:21;12.32;;;5.70;;
79015;SDS011;72726;44.842;37.556;2024-02-23T05:27:22;10.55;;;5.30;;
79015;SDS011;72726;44.842;37.556;2024-02-23T05:28:23;11.60;;;5.30;;
79015;SDS011;72726;44.842;37.556;2024-02-23T05:29:24;11.32;;;5.03;;
79015;SDS011;72726;44.842;37.556;2024-02-23T05:30:25;11.80;;;4.85;;
79015;SDS011;72726;44.842;37.556;2024-02-23T05:31:48;9.80;;;4.75;;
79015;SDS011;72726;44.842;37.556;2024-02-23T05:32:53;11.73;;;5.18;;
79015;SDS011;72726;44.842;37.556;2024-02-23T05:33:54;10.48;;;5.28;;
79015;SDS011;72726;44.842;37.556;2024-02-23T05:34:55;13.23;;;5.25;;
79015;SDS011;72726;44.842;37.556;2024-02-23T05:35:57;8.95;;;4.10;;
79015;SDS011;72726;44.842;37.556;2024-02-23T05:36:58;12.73;;;4.85;;
79015;SDS011;72726;44.842;37.556;2024-02-23T05:37:59;9.52;;;4.85;;
79015;SDS011;72726;44.842;37.556;2024-02-23T05:39:00;8.73;;;4.00;;
79015;SDS011;72726;44.842;37.556;2024-02-23T05:40:02;11.10;;;4.70;;
79015;SDS011;72726;44.842;37.556;2024-02-23T05:41:11;10.27;;;4.53;;
79015;SDS011;72726;44.842;37.556;2024-02-23T05:42:12;10.40;;;4.43;;
79015;SDS011;72726;44.842;37.556;2024-02-23T05:43:14;11.43;;;5.25;;
79015;SDS011;72726;44.842;37.556;2024-02-23T05:44:15;9.73;;;4.57;;
79015;SDS011;72726;44.842;37.556;2024-02-23T05:45:17;9.45;;;4.80;;
79015;SDS011;72726;44.842;37.556;2024-02-23T05:46:18;10.85;;;4.95;;
79015;SDS011;72726;44.842;37.556;2024-02-23T05:47:19;11.10;;;4.93;;
79015;SDS011;72726;44.842;37.556;2024-02-23T05:48:21;10.73;;;4.97;;
79015;SDS011;72726;44.842;37.556;2024-02-23T05:49:22;13.20;;;5.40;;
79015;SDS011;72726;44.842;37.556;2024-02-23T05:50:24;13.38;;;5.88;;
79015;SDS011;72726;44.842;37.556;2024-02-23T05:51:25;13.82;;;6.20;;
79015;SDS011;72726;44.842;37.556;2024-02-23T05:52:26;12.77;;;5.95;;
79015;SDS011;72726;44.842;37.556;2024-02-23T05:53:27;13.10;;;5.97;;
79015;SDS011;72726;44.842;37.556;2024-02-23T05:54:31;13.52;;;6.35;;
79015;SDS011;72726;44.842;37.556;2024-02-23T05:55:32;15.90;;;6.68;;
79015;SDS011;72726;44.842;37.556;2024-02-23T05:56:34;16.48;;;6.85;;
79015;SDS011;72726;44.842;37.556;2024-02-23T05:57:35;15.68;;;7.25;;
79015;SDS011;72726;44.842;37.556;2024-02-23T05:58:36;15.13;;;7.82;;
79015;SDS011;72726;44.842;37.556;2024-02-23T05:59:39;16.73;;;7.70;;